Time;durP1;ratioP1;P1;durP2;ratioP2;P2;SDS_P1;SDS_P2;PMS_P1;PMS_P2;Temp;Humidity;BMP_temperature;BMP_pressure;BME280_temperature;BME280_humidity;BME280_pressure;Samples;Min_cycle;Max_cycle;Signal;HPM_P1;HPM_P2
2020/12/21 00:01:38;;;;;;;7.60;5.97;;;9.90;99.90;;;;;;5070597;28;20510;-82
2020/12/21 00:04:05;;;;;;;7.67;5.90;;;10.00;99.90;;;;;;5075426;28;20477;-83
2020/12/21 00:06:31;;;;;;;7.80;5.73;;;9.90;99.90;;;;;;5068645;28;20460;-82
2020/12/21 00:08:58;;;;;;;8.97;5.90;;;9.70;99.90;;;;;;5061865;28;20951;-83
2020/12/21 00:11:35;;;;;;;8.67;5.57;;;9.90;99.90;;;;;;5065420;28;20497;-83
2020/12/21 00:14:02;;;;;;;7.60;6.20;;;10.00;99.90;;;;;;5087889;28;20484;-83
2020/12/21 00:16:36;;;;;;;7.90;6.30;;;9.90;99.90;;;;;;5084878;28;20467;-82
2020/12/21 00:19:03;;;;;;;8.20;6.00;;;10.10;99.90;;;;;;5082723;28;20947;-82
2020/12/21 00:21:30;;;;;;;7.37;5.63;;;9.90;99.90;;;;;;5081684;28;20456;-82
2020/12/21 00:23:57;;;;;;;7.33;5.30;;;9.90;99.90;;;;;;5082265;28;21033;-82
2020/12/21 00:26:24;;;;;;;8.20;5.73;;;9.80;99.90;;;;;;5082462;28;20440;-81
2020/12/21 00:28:50;;;;;;;6.70;5.50;;;10.00;99.90;;;;;;5082056;28;20477;-82
2020/12/21 00:31:25;;;;;;;8.50;5.43;;;9.90;99.90;;;;;;5080243;28;20494;-81
2020/12/21 00:33:51;;;;;;;9.50;5.60;;;9.90;99.90;;;;;;5079948;28;20455;-82
2020/12/21 00:36:18;;;;;;;7.40;5.80;;;9.90;99.90;;;;;;5080400;28;20427;-82
2020/12/21 00:38:46;;;;;;;8.47;5.70;;;9.80;99.90;;;;;;5079599;28;20436;-80
2020/12/21 00:41:15;;;;;;;6.30;5.07;;;9.60;99.90;;;;;;5079885;28;20557;-81
2020/12/21 00:43:42;;;;;;;7.60;5.57;;;9.80;99.90;;;;;;5079913;28;20484;-81
2020/12/21 00:46:13;;;;;;;6.73;5.10;;;9.80;99.90;;;;;;5079740;28;20436;-81
2020/12/21 00:48:39;;;;;;;6.43;4.93;;;9.80;99.90;;;;;;5080012;28;20468;-81
2020/12/21 00:51:06;;;;;;;6.43;4.37;;;9.80;99.90;;;;;;5079541;28;20494;-82
2020/12/21 00:53:33;;;;;;;6.10;4.50;;;9.80;99.90;;;;;;5079518;28;20480;-83
2020/12/21 00:56:02;;;;;;;8.30;4.70;;;9.90;99.90;;;;;;5079121;28;20981;-80
2020/12/21 00:58:29;;;;;;;8.83;5.47;;;9.90;99.90;;;;;;5080587;28;20500;-83
2020/12/21 01:00:56;;;;;;;9.30;4.80;;;10.00;99.90;;;;;;5070588;28;20445;-82
2020/12/21 01:03:22;;;;;;;6.90;4.87;;;10.00;99.90;;;;;;5060291;28;21006;-82
2020/12/21 01:05:49;;;;;;;7.87;4.77;;;10.00;99.90;;;;;;5066943;28;20772;-83
2020/12/21 01:08:16;;;;;;;6.37;4.20;;;9.90;99.90;;;;;;5080541;28;20459;-80
2020/12/21 01:10:42;;;;;;;6.93;4.10;;;9.90;99.90;;;;;;5071700;28;20516;-80
2020/12/21 01:13:10;;;;;;;6.17;4.10;;;9.70;99.90;;;;;;5071880;28;20486;-82
2020/12/21 01:15:36;;;;;;;6.80;4.90;;;10.00;99.90;;;;;;5080633;28;20453;-82
2020/12/21 01:18:03;;;;;;;7.50;5.10;;;10.00;99.90;;;;;;5079072;28;20554;-81
2020/12/21 01:20:29;;;;;;;6.80;4.17;;;9.90;99.90;;;;;;5083016;28;20429;-82
2020/12/21 01:22:56;;;;;;;7.70;5.47;;;9.80;99.90;;;;;;5095368;28;20460;-81
2020/12/21 01:25:23;;;;;;;7.40;5.50;;;9.80;99.90;;;;;;5094370;28;20519;-82
2020/12/21 01:27:49;;;;;;;6.37;4.70;;;9.80;99.90;;;;;;5089510;28;20444;-83
2020/12/21 01:30:16;;;;;;;7.53;4.93;;;9.70;99.90;;;;;;5087166;28;20509;-83
2020/12/21 01:32:43;;;;;;;8.83;4.50;;;9.70;99.90;;;;;;5087369;28;20464;-83
2020/12/21 01:35:09;;;;;;;6.60;4.37;;;9.60;99.90;;;;;;5087041;28;20467;-83
2020/12/21 01:37:36;;;;;;;7.80;4.53;;;9.70;99.90;;;;;;5087228;28;20433;-83
2020/12/21 01:40:05;;;;;;;8.00;4.87;;;9.60;99.90;;;;;;5079356;28;20820;-82
2020/12/21 01:42:32;;;;;;;6.40;4.27;;;9.60;99.90;;;;;;5083999;28;20464;-82
2020/12/21 01:44:58;;;;;;;6.90;4.73;;;9.60;99.90;;;;;;5087054;28;20440;-82
2020/12/21 01:47:27;;;;;;;5.90;4.50;;;9.50;99.90;;;;;;5087768;28;20526;-82
2020/12/21 01:49:53;;;;;;;6.20;4.53;;;9.60;99.90;;;;;;5087637;28;20505;-81
2020/12/21 01:52:20;;;;;;;6.20;4.10;;;9.60;99.90;;;;;;5085039;28;20437;-81
2020/12/21 01:54:47;;;;;;;8.73;4.57;;;9.60;99.90;;;;;;5067736;28;20508;-81
2020/12/21 01:57:14;;;;;;;6.20;4.00;;;9.50;99.90;;;;;;5067234;28;20449;-84
2020/12/21 01:59:41;;;;;;;5.43;3.80;;;9.80;99.90;;;;;;5067981;28;20667;-82
2020/12/21 02:02:07;;;;;;;8.03;4.07;;;9.60;99.90;;;;;;5068604;28;20460;-82
2020/12/21 02:04:35;;;;;;;8.40;3.87;;;9.40;99.90;;;;;;5067515;28;20893;-83
2020/12/21 02:07:02;;;;;;;7.10;4.25;;;9.50;99.90;;;;;;5065346;28;20571;-83
2020/12/21 02:09:29;;;;;;;6.10;4.20;;;9.40;99.90;;;;;;5063795;28;20221;-82
2020/12/21 02:11:56;;;;;;;5.75;4.07;;;9.20;99.90;;;;;;5061383;28;20199;-82
2020/12/21 02:14:23;;;;;;;5.63;3.97;;;9.00;99.90;;;;;;5073623;28;20303;-82
2020/12/21 02:16:50;;;;;;;6.57;4.55;;;8.90;99.90;;;;;;5080645;28;20833;-81
2020/12/21 02:19:18;;;;;;;6.55;4.43;;;8.90;99.90;;;;;;5085860;28;20217;-80
2020/12/21 02:21:45;;;;;;;6.68;4.50;;;8.90;99.90;;;;;;5086768;28;20224;-82
2020/12/21 02:24:12;;;;;;;6.72;4.78;;;8.80;99.90;;;;;;5091027;28;20721;-83
2020/12/21 02:26:39;;;;;;;8.02;4.65;;;8.80;99.90;;;;;;5091889;28;20209;-82
2020/12/21 02:29:06;;;;;;;7.68;4.30;;;8.70;99.90;;;;;;5093312;28;20194;-82
2020/12/21 02:31:33;;;;;;;6.57;3.90;;;8.60;99.90;;;;;;5094561;28;20237;-81
2020/12/21 02:34:02;;;;;;;7.03;4.70;;;8.40;99.90;;;;;;5086694;28;20486;-81
2020/12/21 02:36:29;;;;;;;6.43;3.65;;;8.70;99.90;;;;;;5073041;28;20451;-82
2020/12/21 02:38:56;;;;;;;6.40;4.45;;;8.60;99.90;;;;;;5060299;28;20206;-81
2020/12/21 02:41:23;;;;;;;6.18;4.07;;;8.50;99.90;;;;;;5061510;28;20206;-81
2020/12/21 02:43:50;;;;;;;6.10;4.57;;;8.60;99.90;;;;;;5077169;28;20275;-81
2020/12/21 02:46:17;;;;;;;6.45;4.05;;;8.50;99.90;;;;;;5083167;28;20210;-81
2020/12/21 02:48:44;;;;;;;6.22;4.07;;;8.40;99.90;;;;;;5080153;28;20219;-80
2020/12/21 02:51:15;;;;;;;7.35;4.40;;;8.70;99.90;;;;;;5078900;28;20725;-81
2020/12/21 02:53:42;;;;;;;5.25;3.92;;;8.50;99.90;;;;;;5078634;28;20224;-80
2020/12/21 02:56:09;;;;;;;6.20;4.15;;;8.50;99.90;;;;;;5077239;28;20603;-81
2020/12/21 02:58:36;;;;;;;6.90;4.25;;;8.60;99.90;;;;;;5076555;28;20206;-81
2020/12/21 03:01:02;;;;;;;5.40;3.55;;;8.50;99.90;;;;;;5080448;28;20198;-82
2020/12/21 03:03:29;;;;;;;6.00;4.00;;;8.70;99.90;;;;;;5083745;28;20764;-82
2020/12/21 03:05:55;;;;;;;5.72;3.60;;;8.60;99.90;;;;;;5082838;28;20243;-82
2020/12/21 03:08:22;;;;;;;6.05;3.80;;;8.50;99.90;;;;;;5083214;28;20201;-81
2020/12/21 03:10:49;;;;;;;7.05;4.05;;;8.60;99.90;;;;;;5085079;28;20248;-81
2020/12/21 03:13:16;;;;;;;5.40;3.70;;;8.60;99.90;;;;;;5084518;28;20233;-82
2020/12/21 03:15:43;;;;;;;5.65;3.50;;;8.40;99.90;;;;;;5084710;28;20220;-81
2020/12/21 03:18:09;;;;;;;6.43;4.13;;;8.40;99.90;;;;;;5085430;28;20202;-81
2020/12/21 03:20:36;;;;;;;5.80;3.60;;;8.50;99.90;;;;;;5086996;28;20232;-80
2020/12/21 03:23:02;;;;;;;5.05;3.45;;;8.30;99.90;;;;;;5090437;28;20226;-81
2020/12/21 03:25:29;;;;;;;6.15;3.50;;;8.20;99.90;;;;;;5089083;28;20202;-81
2020/12/21 03:27:55;;;;;;;5.32;3.50;;;8.30;99.90;;;;;;5084181;28;20205;-81
2020/12/21 03:30:23;;;;;;;5.55;3.83;;;8.30;99.90;;;;;;5095721;28;20232;-82
2020/12/21 03:32:49;;;;;;;5.85;3.58;;;8.10;99.90;;;;;;5079983;28;20237;-81
2020/12/21 03:35:16;;;;;;;6.05;3.80;;;8.00;99.90;;;;;;5066345;28;20757;-82
2020/12/21 03:37:42;;;;;;;5.15;3.47;;;8.20;99.90;;;;;;5063904;28;20256;-81
2020/12/21 03:40:09;;;;;;;5.32;3.22;;;8.00;99.90;;;;;;5063541;28;20213;-82
2020/12/21 03:42:36;;;;;;;6.88;4.32;;;8.00;99.90;;;;;;5067388;28;20217;-83
2020/12/21 03:45:03;;;;;;;4.75;3.65;;;8.10;99.90;;;;;;5082664;28;20269;-81
2020/12/21 03:47:31;;;;;;;8.90;3.67;;;7.80;99.90;;;;;;5082602;28;20202;-81
2020/12/21 03:49:57;;;;;;;5.78;3.53;;;7.90;99.90;;;;;;5082813;28;20628;-82
2020/12/21 03:52:24;;;;;;;5.13;3.53;;;7.80;99.90;;;;;;5082606;28;20201;-83
2020/12/21 03:54:50;;;;;;;6.80;3.85;;;7.90;99.90;;;;;;5082787;28;20206;-82
2020/12/21 03:57:17;;;;;;;6.03;4.07;;;8.00;99.90;;;;;;5081739;28;20201;-82
2020/12/21 03:59:43;;;;;;;8.45;3.78;;;7.90;99.90;;;;;;5081487;28;20194;-83
2020/12/21 04:02:10;;;;;;;8.27;4.13;;;7.90;99.90;;;;;;5082226;28;20205;-82
2020/12/21 04:04:37;;;;;;;5.95;3.85;;;8.10;99.90;;;;;;5081915;28;20229;-81
2020/12/21 04:07:04;;;;;;;6.15;3.97;;;8.00;99.90;;;;;;5081862;28;20206;-84
2020/12/21 04:09:30;;;;;;;6.15;3.58;;;7.90;99.90;;;;;;5081663;28;20202;-82
2020/12/21 04:11:57;;;;;;;7.75;3.83;;;7.80;99.90;;;;;;5079964;28;20244;-82
2020/12/21 04:14:24;;;;;;;5.30;3.40;;;8.00;99.90;;;;;;5080276;28;20233;-82
2020/12/21 04:16:50;;;;;;;5.70;3.80;;;7.70;99.90;;;;;;5081627;28;20467;-83
2020/12/21 04:19:17;;;;;;;5.53;3.70;;;7.60;99.90;;;;;;5080451;28;20448;-84
2020/12/21 04:21:44;;;;;;;7.57;4.10;;;7.60;99.90;;;;;;5081439;28;20202;-82
2020/12/21 04:24:11;;;;;;;7.38;3.75;;;7.50;99.90;;;;;;5081534;28;20570;-83
2020/12/21 04:26:37;;;;;;;5.75;3.78;;;7.50;99.90;;;;;;5081474;28;20205;-82
2020/12/21 04:29:04;;;;;;;7.00;5.35;;;7.50;99.90;;;;;;5071921;28;20217;-82
2020/12/21 04:31:30;;;;;;;6.60;4.05;;;7.50;99.90;;;;;;5067944;28;20230;-83
2020/12/21 04:33:57;;;;;;;5.40;3.83;;;7.50;99.90;;;;;;5067948;28;20230;-82
2020/12/21 04:36:23;;;;;;;6.05;3.97;;;7.60;99.90;;;;;;5068245;28;20202;-83
2020/12/21 04:38:53;;;;;;;7.40;3.65;;;7.30;99.90;;;;;;5068290;28;20213;-83
2020/12/21 04:41:19;;;;;;;7.10;4.22;;;7.40;99.90;;;;;;5068013;28;20203;-82
2020/12/21 04:43:47;;;;;;;5.30;3.47;;;7.50;99.90;;;;;;5085398;28;20225;-82
2020/12/21 04:46:14;;;;;;;4.75;3.47;;;7.50;99.90;;;;;;5086161;28;20612;-82
2020/12/21 04:48:42;;;;;;;7.07;3.40;;;7.40;99.90;;;;;;5086007;28;20292;-82
2020/12/21 04:51:09;;;;;;;5.55;3.80;;;7.60;99.90;;;;;;5084933;28;20221;-83
2020/12/21 04:53:38;;;;;;;6.13;3.50;;;7.40;99.90;;;;;;5084207;28;20228;-83
2020/12/21 04:56:06;;;;;;;6.90;4.10;;;7.60;99.90;;;;;;5079868;28;20194;-82
2020/12/21 04:58:32;;;;;;;5.85;3.75;;;7.40;99.90;;;;;;5064223;28;20199;-82
2020/12/21 05:00:59;;;;;;;6.22;4.50;;;7.40;99.90;;;;;;5063685;28;20274;-82
2020/12/21 05:03:26;;;;;;;5.65;3.63;;;7.50;99.90;;;;;;5063437;28;20227;-83
2020/12/21 05:05:52;;;;;;;7.25;4.10;;;7.60;99.90;;;;;;5063409;28;20214;-82
2020/12/21 05:08:21;;;;;;;7.43;4.05;;;7.40;99.90;;;;;;5063108;28;20210;-81
2020/12/21 05:10:59;;;;;;;7.40;4.20;;;7.50;99.90;;;;;;5073611;28;20241;-82
2020/12/21 05:13:27;;;;;;;6.05;4.40;;;7.60;99.90;;;;;;5088568;28;20225;-82
2020/12/21 05:15:55;;;;;;;7.30;4.43;;;7.50;99.90;;;;;;5089822;28;20206;-82
2020/12/21 05:18:25;;;;;;;8.05;4.18;;;7.60;99.90;;;;;;5086238;28;20206;-82
2020/12/21 05:21:00;;;;;;;6.25;3.85;;;7.50;99.90;;;;;;5081837;28;20213;-82
2020/12/21 05:23:26;;;;;;;6.55;4.45;;;7.70;99.90;;;;;;5079322;28;20233;-82
2020/12/21 05:26:01;;;;;;;6.82;4.50;;;7.70;99.90;;;;;;5074870;28;20213;-80
2020/12/21 05:28:31;;;;;;;7.05;4.35;;;7.60;99.90;;;;;;5073963;28;20667;-81
2020/12/21 05:30:59;;;;;;;6.30;4.38;;;7.90;99.90;;;;;;5073441;28;20228;-82
2020/12/21 05:33:25;;;;;;;6.70;4.30;;;7.80;99.90;;;;;;5077012;28;20590;-82
2020/12/21 05:35:55;;;;;;;5.53;3.90;;;8.00;99.90;;;;;;5088956;28;20206;-82
2020/12/21 05:38:26;;;;;;;8.20;4.35;;;7.90;99.90;;;;;;5083378;28;20206;-80
2020/12/21 05:40:53;;;;;;;6.43;4.05;;;7.70;99.90;;;;;;5084351;28;20209;-81
2020/12/21 05:43:27;;;;;;;5.40;4.32;;;7.60;99.90;;;;;;5091728;28;20781;-81
2020/12/21 05:46:09;;;;;;;7.70;4.45;;;7.70;99.90;;;;;;5089443;28;20220;-82
2020/12/21 05:48:38;;;;;;;7.78;4.30;;;7.60;99.90;;;;;;5085267;28;20228;-82
2020/12/21 05:51:06;;;;;;;6.07;4.15;;;7.60;99.90;;;;;;5077048;28;20615;-80
2020/12/21 05:53:38;;;;;;;8.13;5.13;;;7.60;99.90;;;;;;5065906;28;20227;-81
2020/12/21 05:56:06;;;;;;;9.20;4.60;;;7.70;99.90;;;;;;5063439;28;20222;-82
2020/12/21 05:58:34;;;;;;;6.68;4.15;;;7.70;99.90;;;;;;5068971;28;20298;-83
2020/12/21 06:01:02;;;;;;;8.77;4.90;;;8.00;99.90;;;;;;5070431;28;20229;-84
2020/12/21 06:03:44;;;;;;;7.00;4.32;;;8.10;99.90;;;;;;5069820;28;20477;-83
2020/12/21 06:06:13;;;;;;;7.20;4.33;;;8.00;99.90;;;;;;5069334;28;20210;-83
2020/12/21 06:08:40;;;;;;;6.55;4.72;;;8.00;99.90;;;;;;5088750;28;20456;-84
2020/12/21 06:11:12;;;;;;;8.82;5.18;;;7.70;99.90;;;;;;5088680;28;20226;-83
2020/12/21 06:13:42;;;;;;;9.43;4.53;;;7.90;99.90;;;;;;5125642;22;20220;-82
2020/12/21 06:16:10;;;;;;;10.55;5.70;;;7.90;99.90;;;;;;5130091;28;20204;-81
2020/12/21 06:18:37;;;;;;;10.90;5.35;;;7.80;99.90;;;;;;5127911;28;20200;-82
2020/12/21 06:21:04;;;;;;;7.20;4.95;;;7.60;99.90;;;;;;5130885;28;20264;-81
2020/12/21 06:23:37;;;;;;;12.52;5.47;;;7.70;99.90;;;;;;5125231;28;20293;-82
2020/12/21 06:26:14;;;;;;;7.68;5.03;;;7.60;99.90;;;;;;5108855;28;20192;-81
2020/12/21 06:28:40;;;;;;;7.68;5.47;;;7.80;99.90;;;;;;5109576;28;20205;-82
2020/12/21 06:31:12;;;;;;;8.32;4.82;;;7.60;99.90;;;;;;5107080;28;20525;-82
2020/12/21 06:33:39;;;;;;;7.60;5.70;;;7.80;99.90;;;;;;5106664;28;20272;-82
2020/12/21 06:36:06;;;;;;;10.55;6.60;;;7.90;99.90;;;;;;5089985;28;20202;-81
2020/12/21 06:38:47;;;;;;;9.23;6.35;;;7.70;99.90;;;;;;5083845;28;20278;-82
2020/12/21 06:41:17;;;;;;;8.60;5.78;;;7.80;99.90;;;;;;5084049;28;20225;-81
2020/12/21 06:44:01;;;;;;;8.85;5.20;;;7.70;99.90;;;;;;5089239;28;20228;-82
2020/12/21 06:46:29;;;;;;;6.90;5.15;;;7.90;99.90;;;;;;5103642;28;20705;-81
2020/12/21 06:49:05;;;;;;;10.83;6.67;;;7.90;99.90;;;;;;5095582;28;20201;-83
2020/12/21 06:51:32;;;;;;;9.95;5.60;;;8.00;99.90;;;;;;5082490;28;20490;-82
2020/12/21 06:53:59;;;;;;;12.93;5.20;;;8.00;99.90;;;;;;5078437;28;20316;-82
2020/12/21 06:56:26;;;;;;;7.30;5.47;;;7.80;99.90;;;;;;5075316;28;20206;-82
2020/12/21 06:58:57;;;;;;;9.23;5.97;;;7.90;99.90;;;;;;5087211;28;20316;-82
2020/12/21 07:01:25;;;;;;;8.43;5.57;;;7.80;99.90;;;;;;5089575;28;20202;-82
2020/12/21 07:03:52;;;;;;;8.45;5.65;;;7.70;99.90;;;;;;5079032;28;20258;-81
2020/12/21 07:06:20;;;;;;;10.40;7.18;;;7.70;99.90;;;;;;5087591;28;20197;-82
2020/12/21 07:08:49;;;;;;;10.95;6.32;;;7.60;99.90;;;;;;5097182;28;20704;-82
2020/12/21 07:11:20;;;;;;;12.13;6.30;;;7.70;99.90;;;;;;5092975;28;20233;-82
2020/12/21 07:13:49;;;;;;;10.13;6.78;;;7.80;99.90;;;;;;5088935;28;20244;-83
2020/12/21 07:16:17;;;;;;;9.93;6.00;;;8.00;99.90;;;;;;5075749;28;20206;-83
2020/12/21 07:18:45;;;;;;;8.02;5.25;;;7.80;99.90;;;;;;5074989;28;20285;-83
2020/12/21 07:21:12;;;;;;;8.50;5.82;;;8.10;99.90;;;;;;5076716;28;20201;-83
2020/12/21 07:23:40;;;;;;;9.45;6.45;;;8.00;99.90;;;;;;5095358;28;20229;-83
2020/12/21 07:26:08;;;;;;;9.57;6.00;;;8.00;99.90;;;;;;5095142;28;20205;-83
2020/12/21 07:28:35;;;;;;;10.07;6.43;;;8.10;99.90;;;;;;5094394;28;20214;-82
2020/12/21 07:31:09;;;;;;;8.85;5.80;;;8.20;99.90;;;;;;5094186;28;20553;-83
2020/12/21 07:33:48;;;;;;;9.18;6.32;;;8.10;99.90;;;;;;5096769;28;20225;-82
2020/12/21 07:36:15;;;;;;;9.02;6.25;;;8.00;99.90;;;;;;5100152;28;20201;-82
2020/12/21 07:38:42;;;;;;;7.78;5.40;;;8.30;99.90;;;;;;5097687;28;20208;-82
2020/12/21 07:41:10;;;;;;;9.30;6.05;;;8.00;99.90;;;;;;5109055;28;20222;-82
2020/12/21 07:43:40;;;;;;;9.40;6.35;;;8.00;99.90;;;;;;5114954;28;20221;-82
2020/12/21 07:46:11;;;;;;;9.23;6.45;;;8.20;99.90;;;;;;5107428;28;20205;-82
2020/12/21 07:48:38;;;;;;;8.98;5.75;;;8.00;99.90;;;;;;5102641;28;20205;-82
2020/12/21 07:51:07;;;;;;;9.77;6.13;;;8.00;99.90;;;;;;5101193;28;20225;-81
2020/12/21 07:53:38;;;;;;;10.15;6.95;;;7.90;99.90;;;;;;5097896;28;20312;-81
2020/12/21 07:56:06;;;;;;;9.77;6.82;;;8.10;99.90;;;;;;5094826;28;20510;-81
2020/12/21 07:58:35;;;;;;;8.52;5.88;;;8.20;99.90;;;;;;5095868;28;20217;-82
2020/12/21 08:01:02;;;;;;;8.88;6.78;;;8.00;99.90;;;;;;5098283;28;20213;-82
2020/12/21 08:03:31;;;;;;;12.02;7.07;;;8.00;99.90;;;;;;5099695;28;20245;-82
2020/12/21 08:06:05;;;;;;;9.98;6.18;;;8.20;99.90;;;;;;5107728;28;20205;-82
2020/12/21 08:08:32;;;;;;;11.30;6.57;;;8.00;99.90;;;;;;5107894;28;20269;-82
2020/12/21 08:10:59;;;;;;;9.90;6.53;;;8.10;99.90;;;;;;5107343;28;20487;-82
2020/12/21 08:13:26;;;;;;;11.27;6.97;;;8.10;99.90;;;;;;5101920;28;20229;-82
2020/12/21 08:16:04;;;;;;;10.82;6.55;;;8.30;99.90;;;;;;5103995;28;20240;-82
2020/12/21 08:18:31;;;;;;;9.32;6.38;;;8.30;99.90;;;;;;5104610;28;20193;-82
2020/12/21 08:20:58;;;;;;;13.75;7.90;;;8.20;99.90;;;;;;5107566;28;20309;-83
2020/12/21 08:23:32;;;;;;;10.67;6.90;;;8.30;99.90;;;;;;5108436;28;20286;-84
2020/12/21 08:26:14;;;;;;;9.30;5.97;;;8.40;99.90;;;;;;5108757;28;20432;-83
2020/12/21 08:28:42;;;;;;;8.85;6.45;;;8.30;99.90;;;;;;5105620;28;20459;-82
2020/12/21 08:31:14;;;;;;;10.32;7.13;;;8.40;99.90;;;;;;5105112;28;20282;-82
2020/12/21 08:33:58;;;;;;;10.95;6.45;;;8.30;99.90;;;;;;5105798;28;20702;-82
2020/12/21 08:36:28;;;;;;;11.18;7.50;;;8.30;99.90;;;;;;5106370;28;20209;-82
2020/12/21 08:39:05;;;;;;;8.82;7.07;;;8.60;99.90;;;;;;5106113;28;20201;-82
2020/12/21 08:41:36;;;;;;;8.75;6.65;;;8.50;99.90;;;;;;5103803;28;20216;-83
2020/12/21 08:44:05;;;;;;;10.05;7.00;;;8.60;99.90;;;;;;5103515;28;20316;-83
2020/12/21 08:46:32;;;;;;;15.43;7.50;;;8.40;99.90;;;;;;5082581;28;20289;-82
2020/12/21 08:48:59;;;;;;;11.93;8.13;;;8.60;99.90;;;;;;5081473;28;20210;-82
2020/12/21 08:51:25;;;;;;;11.55;6.68;;;8.80;99.90;;;;;;5080951;28;20233;-82
2020/12/21 08:53:57;;;;;;;10.13;7.10;;;8.80;99.90;;;;;;5080906;28;20240;-82
2020/12/21 08:56:23;;;;;;;12.40;7.43;;;8.60;99.90;;;;;;5080141;28;20279;-81
2020/12/21 08:58:50;;;;;;;13.83;7.90;;;8.50;99.90;;;;;;5078426;28;20241;-81
2020/12/21 09:01:18;;;;;;;10.05;6.95;;;8.50;99.90;;;;;;5080464;28;20503;-81
2020/12/21 09:03:46;;;;;;;14.43;7.30;;;8.60;99.90;;;;;;5081312;28;20234;-81
2020/12/21 09:06:20;;;;;;;16.67;6.88;;;8.80;99.90;;;;;;5080398;28;20205;-82
2020/12/21 09:08:47;;;;;;;12.98;7.90;;;8.70;99.90;;;;;;5079368;28;20220;-81
2020/12/21 09:11:18;;;;;;;10.53;6.57;;;8.80;99.90;;;;;;5081234;28;20225;-81
2020/12/21 09:13:45;;;;;;;11.70;7.97;;;8.60;99.90;;;;;;5086916;28;20454;-81
2020/12/21 09:16:11;;;;;;;14.50;7.30;;;8.70;99.90;;;;;;5099979;28;20575;-82
2020/12/21 09:18:41;;;;;;;11.83;7.37;;;8.80;99.90;;;;;;5093294;28;20448;-80
2020/12/21 09:21:07;;;;;;;15.50;8.05;;;8.80;99.90;;;;;;5088511;28;20444;-81
2020/12/21 09:23:34;;;;;;;10.35;7.00;;;8.80;99.90;;;;;;5089026;28;20226;-81
2020/12/21 09:26:03;;;;;;;8.10;6.40;;;8.90;99.90;;;;;;5088289;28;20206;-82
2020/12/21 09:28:30;;;;;;;10.17;6.60;;;8.70;99.90;;;;;;5085965;28;20460;-82
2020/12/21 09:30:56;;;;;;;12.33;7.63;;;8.80;99.90;;;;;;5086764;28;20511;-82
2020/12/21 09:33:23;;;;;;;8.90;6.53;;;8.80;99.90;;;;;;5085542;28;20464;-82
2020/12/21 09:35:51;;;;;;;9.17;6.03;;;8.90;99.90;;;;;;5085217;28;20214;-82
2020/12/21 09:38:18;;;;;;;8.63;7.30;;;9.00;99.90;;;;;;5087574;28;20514;-83
2020/12/21 09:40:44;;;;;;;10.02;6.53;;;9.10;99.90;;;;;;5086364;28;20440;-82
2020/12/21 09:43:11;;;;;;;13.13;7.33;;;9.00;99.90;;;;;;5087575;28;20349;-82
2020/12/21 09:45:38;;;;;;;7.20;5.20;;;9.20;99.90;;;;;;5105952;28;20450;-83
2020/12/21 09:48:04;;;;;;;7.87;5.30;;;9.40;99.90;;;;;;5104427;28;20937;-83
2020/12/21 09:50:31;;;;;;;7.20;5.20;;;9.40;99.90;;;;;;5105573;28;20498;-82
2020/12/21 09:52:58;;;;;;;9.50;5.13;;;9.50;99.90;;;;;;5104105;28;20425;-82
2020/12/21 09:55:25;;;;;;;10.60;5.93;;;9.50;99.90;;;;;;5106853;28;20434;-83
2020/12/21 09:57:52;;;;;;;11.53;5.53;;;9.40;99.90;;;;;;5111620;28;20453;-81
2020/12/21 10:00:18;;;;;;;11.27;7.00;;;9.40;99.90;;;;;;5107102;28;20417;-82
2020/12/21 10:02:45;;;;;;;10.47;5.80;;;9.50;99.90;;;;;;5107170;28;20425;-81
2020/12/21 10:05:11;;;;;;;12.37;5.17;;;9.30;99.90;;;;;;5104020;28;20800;-82
2020/12/21 10:07:38;;;;;;;8.50;4.80;;;9.30;99.90;;;;;;5094324;28;20438;-82
2020/12/21 10:10:06;;;;;;;12.43;4.90;;;9.60;99.90;;;;;;5080963;28;20448;-82
2020/12/21 10:12:34;;;;;;;10.43;4.60;;;9.70;99.90;;;;;;5080020;28;20539;-81
2020/12/21 10:15:00;;;;;;;7.10;4.50;;;9.80;99.90;;;;;;5100171;28;20506;-81
2020/12/21 10:17:27;;;;;;;11.30;5.50;;;9.70;99.90;;;;;;5101250;28;20458;-81
2020/12/21 10:19:53;;;;;;;6.67;4.50;;;9.90;99.90;;;;;;5102429;28;20539;-81
2020/12/21 10:22:20;;;;;;;8.90;4.17;;;9.90;99.90;;;;;;5105733;28;20521;-81
2020/12/21 10:24:47;;;;;;;8.87;3.80;;;9.90;99.90;;;;;;5095874;28;20506;-81
2020/12/21 10:27:14;;;;;;;6.07;3.57;;;9.90;99.90;;;;;;5079724;28;20452;-81
2020/12/21 10:29:41;;;;;;;8.83;4.37;;;10.10;99.90;;;;;;5080152;28;20455;-81
2020/12/21 10:32:08;;;;;;;8.33;4.10;;;10.00;99.90;;;;;;5078264;28;20497;-81
2020/12/21 10:34:35;;;;;;;8.40;5.10;;;10.00;99.90;;;;;;5076743;28;20478;-82
2020/12/21 10:37:02;;;;;;;8.17;5.77;;;10.10;99.90;;;;;;5074952;28;20456;-81
2020/12/21 10:39:28;;;;;;;7.67;4.27;;;10.00;99.90;;;;;;5083968;28;20507;-81
2020/12/21 10:41:55;;;;;;;7.87;4.70;;;9.70;99.90;;;;;;5082273;28;20445;-81
2020/12/21 10:44:22;;;;;;;9.77;4.67;;;9.80;99.90;;;;;;5088174;28;20482;-82
2020/12/21 10:46:49;;;;;;;8.10;4.33;;;10.00;99.90;;;;;;5094293;28;20826;-82
2020/12/21 10:49:15;;;;;;;8.30;4.90;;;9.90;99.90;;;;;;5095218;28;20962;-82
2020/12/21 10:51:42;;;;;;;12.73;6.37;;;9.90;99.90;;;;;;5099110;28;20478;-82
2020/12/21 10:54:08;;;;;;;12.57;5.90;;;9.70;99.90;;;;;;5097270;28;20578;-82
2020/12/21 10:56:35;;;;;;;7.10;4.30;;;10.00;99.90;;;;;;5096893;28;20857;-82
2020/12/21 10:59:02;;;;;;;16.10;4.73;;;10.00;99.90;;;;;;5095520;28;20451;-81
2020/12/21 11:01:29;;;;;;;5.77;3.33;;;10.10;99.90;;;;;;5098411;28;20475;-82
2020/12/21 11:03:56;;;;;;;8.60;4.07;;;9.90;99.90;;;;;;5097282;28;20480;-82
2020/12/21 11:06:23;;;;;;;5.73;3.70;;;9.90;99.90;;;;;;5097400;28;20508;-82
2020/12/21 11:08:51;;;;;;;8.00;4.20;;;10.00;99.90;;;;;;5097046;28;20526;-82
2020/12/21 11:11:25;;;;;;;8.10;3.30;;;10.10;99.90;;;;;;5097451;28;20483;-83
2020/12/21 11:13:53;;;;;;;7.17;4.00;;;10.10;99.90;;;;;;5097315;28;20482;-83
2020/12/21 11:16:20;;;;;;;10.60;3.77;;;10.00;99.90;;;;;;5078506;28;20505;-82
2020/12/21 11:18:47;;;;;;;6.73;4.03;;;10.10;99.90;;;;;;5077907;28;20795;-82
2020/12/21 11:21:14;;;;;;;11.03;4.40;;;10.00;99.90;;;;;;5077055;28;20457;-82
2020/12/21 11:23:41;;;;;;;8.00;4.17;;;10.10;99.90;;;;;;5078032;28;20521;-82
2020/12/21 11:26:08;;;;;;;7.80;4.00;;;10.10;99.90;;;;;;5081026;28;20422;-82
2020/12/21 11:28:35;;;;;;;8.00;3.77;;;10.20;99.90;;;;;;5086507;28;20501;-81
2020/12/21 11:31:01;;;;;;;9.73;4.03;;;10.20;99.90;;;;;;5096605;28;20571;-81
2020/12/21 11:33:28;;;;;;;9.37;3.80;;;10.10;99.90;;;;;;5104017;28;20461;-82
2020/12/21 11:35:56;;;;;;;5.73;3.80;;;10.30;99.90;;;;;;5098160;28;20538;-83
2020/12/21 11:38:23;;;;;;;8.03;3.70;;;10.30;99.90;;;;;;5103652;28;20462;-82
2020/12/21 11:40:49;;;;;;;5.37;3.37;;;10.40;99.90;;;;;;5109620;28;20442;-82
2020/12/21 11:43:17;;;;;;;8.63;3.90;;;10.30;99.90;;;;;;5107585;28;20452;-83
2020/12/21 11:45:43;;;;;;;7.77;3.43;;;10.30;99.90;;;;;;5107433;28;20476;-81
2020/12/21 11:48:10;;;;;;;6.63;3.73;;;9.80;99.90;;;;;;5106077;28;20447;-81
2020/12/21 11:50:37;;;;;;;9.27;3.90;;;10.20;99.90;;;;;;5106633;28;20494;-82
2020/12/21 11:53:04;;;;;;;5.70;3.40;;;10.30;99.90;;;;;;5100744;28;20487;-82
2020/12/21 11:55:31;;;;;;;6.63;3.43;;;10.30;99.90;;;;;;5099454;28;20595;-81
2020/12/21 11:57:57;;;;;;;6.63;3.87;;;10.30;99.90;;;;;;5103038;28;20455;-82
2020/12/21 12:00:24;;;;;;;9.50;4.20;;;10.30;99.90;;;;;;5104047;28;20422;-83
2020/12/21 12:02:50;;;;;;;6.77;3.37;;;10.20;99.90;;;;;;5104320;28;20559;-81
2020/12/21 12:05:17;;;;;;;7.87;3.90;;;10.40;99.90;;;;;;5086345;28;20452;-81
2020/12/21 12:07:44;;;;;;;5.90;3.17;;;10.30;99.90;;;;;;5084182;28;20458;-81
2020/12/21 12:10:11;;;;;;;7.23;4.00;;;10.40;99.90;;;;;;5086954;28;20494;-81
2020/12/21 12:12:38;;;;;;;4.90;2.80;;;10.50;99.90;;;;;;5092256;28;20563;-82
2020/12/21 12:15:05;;;;;;;6.97;3.17;;;10.60;99.90;;;;;;5101813;28;20446;-82
2020/12/21 12:17:31;;;;;;;6.70;2.90;;;10.70;99.90;;;;;;5102351;28;20458;-82
2020/12/21 12:19:58;;;;;;;4.80;3.20;;;10.70;99.90;;;;;;5098390;28;20455;-81
2020/12/21 12:22:24;;;;;;;8.37;3.87;;;10.60;99.90;;;;;;5081618;28;20438;-81
2020/12/21 12:24:51;;;;;;;9.37;3.00;;;10.60;99.90;;;;;;5081252;28;20540;-83
2020/12/21 12:27:19;;;;;;;5.97;3.70;;;10.70;99.90;;;;;;5081804;28;20447;-83
2020/12/21 12:29:46;;;;;;;5.40;3.40;;;10.80;99.90;;;;;;5081872;28;20481;-82
2020/12/21 12:32:13;;;;;;;9.80;3.73;;;10.80;99.90;;;;;;5082052;28;20492;-81
2020/12/21 12:34:40;;;;;;;5.73;3.43;;;10.80;99.90;;;;;;5082674;28;20613;-82
2020/12/21 12:37:07;;;;;;;4.60;3.20;;;10.70;99.90;;;;;;5082953;28;20524;-82
2020/12/21 12:39:33;;;;;;;5.67;3.90;;;10.70;99.90;;;;;;5080390;28;20430;-82
2020/12/21 12:42:00;;;;;;;6.07;3.57;;;10.70;99.90;;;;;;5080889;28;20446;-81
2020/12/21 12:44:27;;;;;;;6.67;4.13;;;10.70;99.90;;;;;;5092937;28;20462;-81
2020/12/21 12:46:54;;;;;;;5.93;3.50;;;10.70;99.90;;;;;;5101002;28;20417;-81
2020/12/21 12:49:21;;;;;;;9.57;5.87;;;10.80;99.90;;;;;;5101555;28;20441;-81
2020/12/21 12:51:54;;;;;;;4.70;3.40;;;10.90;99.90;;;;;;5102668;28;20457;-82
2020/12/21 12:54:20;;;;;;;10.27;5.63;;;11.10;99.90;;;;;;5101400;28;21027;-81
2020/12/21 12:56:47;;;;;;;6.80;3.43;;;11.20;99.90;;;;;;5102433;28;20443;-82